This is the latest recevied weather packets stored in our database for station/object KC3DGM. If no packets are shown the sender has not sent any weather packets the latest 10 day(s).
| Time | Temp. | Humidity | Pressure | Rain* | Wind** | Luminosity | Snow |
|---|---|---|---|---|---|---|---|
| 1778244597 | 10° C | 75% | 984 hPa | 0 mm | - | 127 W/m² | - |
| 1778244295 | 9.44° C | 77% | 983.9 hPa | 0 mm | - | 84 W/m² | - |
| 1778243992 | 9.44° C | 77% | 983.8 hPa | 0 mm | - | 52 W/m² | - |
| 1778243691 | 9.44° C | 78% | 983.8 hPa | 0 mm | - | 47 W/m² | - |
| 1778243386 | 8.89° C | 77% | 983.8 hPa | 0 mm | - | 45 W/m² | - |
| 1778243084 | 8.89° C | 79% | 983.7 hPa | 0 mm | - | 46 W/m² | - |
| 1778242781 | 8.33° C | 80% | 983.7 hPa | 0 mm | - | 46 W/m² | - |
| 1778242479 | 8.33° C | 81% | 983.7 hPa | 0 mm | - | 40 W/m² | - |
| 1778242176 | 8.33° C | 81% | 983.6 hPa | 0 mm | - | 41 W/m² | - |
| 1778241874 | 7.78° C | 84% | 983.9 hPa | 0 mm | - | 46 W/m² | - |
| 1778241572 | 7.22° C | 84% | 983.8 hPa | 0 mm | - | 45 W/m² | - |
| 1778241269 | 6.11° C | 94% | 983.8 hPa | 0 mm | - | 32 W/m² | - |
| 1778240965 | 5.56° C | 96% | 983.6 hPa | 0 mm | - | 52 W/m² | - |
| 1778240663 | 5° C | 97% | 983.7 hPa | 0 mm | - | 32 W/m² | - |
| 1778240359 | 5° C | 97% | 983.5 hPa | 0 mm | - | 29 W/m² | - |
| 1778240057 | 5° C | 97% | 983.4 hPa | 0 mm | - | 25 W/m² | - |
| 1778239754 | 5° C | 98% | 983.7 hPa | 0 mm | - | 29 W/m² | - |
| 1778239451 | 4.44° C | 98% | 983.7 hPa | 0 mm | - | 44 W/m² | - |
| 1778239147 | 3.89° C | 97% | 983.4 hPa | 0 mm | - | 33 W/m² | - |
| 1778238844 | 3.33° C | 97% | 983.4 hPa | 0 mm | - | 26 W/m² | - |
| 1778238542 | 3.33° C | 97% | 983.2 hPa | 0 mm | - | 24 W/m² | - |
| 1778238239 | 2.78° C | 97% | 983.5 hPa | 0 mm | - | 19 W/m² | - |
| 1778237939 | 2.78° C | 97% | 983.4 hPa | 0 mm | - | 17 W/m² | - |
| 1778237635 | 2.78° C | 97% | 983.4 hPa | 0 mm | - | 15 W/m² | - |
| 1778237333 | 2.78° C | 97% | 983.2 hPa | 0 mm | - | 12 W/m² | - |
* Rain latest hour (hover to see other rain measurements)
** Current wind speed in m/s (hover to see current wind gust speed)